Time;durP1;ratioP1;P1;durP2;ratioP2;P2;SDS_P1;SDS_P2;PMS_P1;PMS_P2;Temp;Humidity;BMP_temperature;BMP_pressure;BME280_temperature;BME280_humidity;BME280_pressure;Samples;Min_cycle;Max_cycle;Signal;HPM_P1;HPM_P2
2021/06/27 00:01:13;;;;;;;30.33;23.07;;;20.50;99.90;;;;;;4903732;29;20215;-82
2021/06/27 00:03:39;;;;;;;32.80;25.07;;;20.40;99.90;;;;;;4924006;29;20189;-83
2021/06/27 00:06:06;;;;;;;37.07;25.17;;;20.50;99.90;;;;;;4916443;29;20322;-79
2021/06/27 00:08:32;;;;;;;32.50;24.60;;;20.40;99.90;;;;;;4921158;29;20214;-81
2021/06/27 00:10:59;;;;;;;36.33;26.57;;;20.50;99.90;;;;;;4915293;29;20187;-81
2021/06/27 00:13:27;;;;;;;34.27;24.93;;;20.40;99.90;;;;;;4911679;29;20190;-80
2021/06/27 00:15:54;;;;;;;36.60;25.37;;;20.40;99.90;;;;;;4921064;29;20356;-80
2021/06/27 00:18:21;;;;;;;36.57;27.93;;;20.40;99.90;;;;;;4901446;29;20189;-82
2021/06/27 00:20:50;;;;;;;36.20;26.83;;;20.40;99.90;;;;;;4920514;29;20274;-80
2021/06/27 00:23:19;;;;;;;35.30;26.63;;;20.50;99.90;;;;;;4899573;29;20276;-80
2021/06/27 00:25:45;;;;;;;37.07;27.40;;;20.50;99.90;;;;;;4916631;29;20194;-80
2021/06/27 00:28:11;;;;;;;40.30;28.23;;;20.50;99.90;;;;;;4907787;29;20194;-84
2021/06/27 00:30:38;;;;;;;38.97;27.50;;;20.50;99.90;;;;;;4911953;29;20563;-83
2021/06/27 00:33:04;;;;;;;40.20;27.60;;;20.40;99.90;;;;;;4912798;29;20185;-83
2021/06/27 00:35:31;;;;;;;41.03;28.67;;;20.40;99.90;;;;;;4903921;29;20208;-84
2021/06/27 00:37:57;;;;;;;40.33;28.90;;;20.30;99.90;;;;;;4906880;29;20254;-83
2021/06/27 00:40:25;;;;;;;38.43;28.20;;;20.30;99.90;;;;;;4912879;29;20195;-81
2021/06/27 00:42:52;;;;;;;37.93;26.73;;;20.20;99.90;;;;;;4922478;29;20228;-79
2021/06/27 00:45:20;;;;;;;37.47;27.63;;;20.30;99.90;;;;;;4916487;29;20193;-79
2021/06/27 00:47:47;;;;;;;37.73;27.60;;;20.30;99.90;;;;;;4916224;29;20670;-79
2021/06/27 00:50:17;;;;;;;40.00;28.73;;;20.30;99.90;;;;;;4909076;29;20194;-79
2021/06/27 00:52:43;;;;;;;40.50;28.90;;;20.20;99.90;;;;;;4918445;29;20202;-79
2021/06/27 00:55:09;;;;;;;43.83;30.83;;;20.20;99.90;;;;;;4907532;29;20183;-80
2021/06/27 00:57:37;;;;;;;40.53;30.53;;;20.20;99.90;;;;;;4916536;29;20604;-80
2021/06/27 01:00:10;;;;;;;43.80;30.07;;;20.10;99.90;;;;;;4914082;29;20657;-80
2021/06/27 01:02:36;;;;;;;40.43;31.47;;;20.20;99.90;;;;;;4907113;29;20226;-79
2021/06/27 01:05:05;;;;;;;41.70;31.80;;;20.30;99.90;;;;;;4917292;29;20207;-83
2021/06/27 01:07:30;;;;;;;45.77;33.30;;;20.20;99.90;;;;;;4907950;29;20197;-84
2021/06/27 01:09:56;;;;;;;47.73;32.17;;;20.10;99.90;;;;;;4919054;29;20215;-83
2021/06/27 01:12:23;;;;;;;48.40;33.03;;;20.30;99.90;;;;;;4920360;29;20295;-83
2021/06/27 01:14:49;;;;;;;46.17;33.50;;;20.20;99.90;;;;;;4932522;29;20262;-83
2021/06/27 01:17:15;;;;;;;45.53;32.80;;;20.20;99.90;;;;;;4924229;29;20264;-84
2021/06/27 01:19:40;;;;;;;43.23;31.27;;;20.20;99.90;;;;;;4931727;29;20246;-83
2021/06/27 01:22:06;;;;;;;47.37;34.20;;;20.20;99.90;;;;;;4921601;29;20661;-83
2021/06/27 01:24:31;;;;;;;46.20;33.53;;;20.10;99.90;;;;;;4928261;29;20190;-84
2021/06/27 01:26:57;;;;;;;46.37;33.00;;;20.10;99.90;;;;;;4920310;29;20199;-83
2021/06/27 01:29:23;;;;;;;47.03;33.87;;;20.10;99.90;;;;;;4907168;29;20220;-82
2021/06/27 01:31:49;;;;;;;44.70;33.53;;;20.10;99.90;;;;;;4919761;29;20625;-83
2021/06/27 01:34:15;;;;;;;49.37;35.50;;;20.30;99.90;;;;;;4919882;29;20212;-83
2021/06/27 01:36:40;;;;;;;49.70;35.40;;;20.40;99.90;;;;;;4919774;29;20273;-83
2021/06/27 01:39:07;;;;;;;45.53;33.07;;;20.30;99.90;;;;;;4923510;29;20220;-83
2021/06/27 01:41:32;;;;;;;47.07;33.47;;;20.30;99.90;;;;;;4910097;29;20187;-83
2021/06/27 01:43:58;;;;;;;43.40;33.53;;;20.20;99.90;;;;;;4921401;29;20688;-85
2021/06/27 01:46:24;;;;;;;50.33;34.40;;;20.00;99.90;;;;;;4919109;29;20192;-83
2021/06/27 01:48:49;;;;;;;49.13;35.13;;;19.90;99.90;;;;;;4919644;29;20193;-83
2021/06/27 01:51:15;;;;;;;48.07;34.77;;;19.90;99.90;;;;;;4918303;29;20187;-83
2021/06/27 01:53:41;;;;;;;47.10;33.87;;;19.90;99.90;;;;;;4921720;29;20229;-83
2021/06/27 01:56:08;;;;;;;50.23;34.57;;;19.80;99.90;;;;;;4925415;29;20211;-83
2021/06/27 01:58:41;;;;;;;48.87;35.60;;;19.80;99.90;;;;;;4919640;29;20190;-83
2021/06/27 02:01:35;;;;;;;49.00;34.00;;;19.80;99.90;;;;;;4929516;29;20199;-83
2021/06/27 02:04:01;;;;;;;51.47;35.40;;;19.80;99.90;;;;;;4900999;29;20206;-83
2021/06/27 02:06:28;;;;;;;49.10;35.87;;;19.70;99.90;;;;;;4902461;29;20192;-83
2021/06/27 02:08:58;;;;;;;49.43;35.80;;;19.80;99.90;;;;;;4915614;29;20205;-83
2021/06/27 02:11:25;;;;;;;48.87;34.93;;;19.90;99.90;;;;;;4919734;29;20187;-83
2021/06/27 02:13:51;;;;;;;51.87;35.90;;;19.90;99.90;;;;;;4902711;29;20554;-83
2021/06/27 02:16:17;;;;;;;51.50;35.87;;;19.90;99.90;;;;;;4901547;29;20267;-83
2021/06/27 02:18:47;;;;;;;51.57;36.30;;;20.00;99.90;;;;;;4902545;29;20584;-80
2021/06/27 02:21:18;;;;;;;48.83;35.83;;;20.00;99.90;;;;;;4920234;29;20190;-79
2021/06/27 02:23:44;;;;;;;50.20;36.33;;;19.90;99.90;;;;;;4911126;29;20345;-83
2021/06/27 02:26:10;;;;;;;52.57;35.33;;;20.00;99.90;;;;;;4929549;29;20231;-84
2021/06/27 02:28:38;;;;;;;47.70;33.47;;;20.00;99.90;;;;;;4913910;29;20264;-81
2021/06/27 02:31:04;;;;;;;47.93;35.17;;;19.90;99.90;;;;;;4915553;29;20652;-81
2021/06/27 02:33:30;;;;;;;48.40;34.37;;;20.00;99.90;;;;;;4921091;29;20752;-80
2021/06/27 02:35:57;;;;;;;53.13;36.00;;;19.90;99.90;;;;;;4906213;29;20275;-83
2021/06/27 02:38:23;;;;;;;53.73;36.07;;;19.80;99.90;;;;;;4902004;29;20194;-84
2021/06/27 02:40:49;;;;;;;52.93;34.43;;;19.70;99.90;;;;;;4926455;29;20188;-83
2021/06/27 02:43:17;;;;;;;53.37;36.47;;;19.70;99.90;;;;;;4919048;29;20199;-83
2021/06/27 02:45:43;;;;;;;52.60;35.57;;;19.60;99.90;;;;;;4914285;29;20193;-84
2021/06/27 02:48:09;;;;;;;54.23;37.77;;;19.60;99.90;;;;;;4911445;29;20194;-83
2021/06/27 02:50:36;;;;;;;50.53;34.73;;;19.60;99.90;;;;;;4905807;29;20194;-83
2021/06/27 02:53:02;;;;;;;51.20;36.13;;;19.60;99.90;;;;;;4901596;29;20187;-83
2021/06/27 02:55:28;;;;;;;49.67;33.60;;;19.60;99.90;;;;;;4910390;29;20188;-81
2021/06/27 02:57:54;;;;;;;49.63;36.17;;;19.70;99.90;;;;;;4918393;29;20202;-83
2021/06/27 03:00:21;;;;;;;48.40;34.53;;;19.70;99.90;;;;;;4904088;29;20187;-83
2021/06/27 03:02:47;;;;;;;52.70;37.67;;;19.70;99.90;;;;;;4903108;29;20198;-84
2021/06/27 03:05:14;;;;;;;50.67;35.57;;;19.60;99.90;;;;;;4911325;29;20202;-83
2021/06/27 03:07:41;;;;;;;56.77;36.47;;;19.60;99.90;;;;;;4921322;29;20210;-82
2021/06/27 03:10:11;;;;;;;48.63;35.47;;;19.60;99.90;;;;;;4896417;29;20218;-83
2021/06/27 03:12:38;;;;;;;50.00;34.50;;;19.60;99.90;;;;;;4917577;29;20667;-83
2021/06/27 03:15:05;;;;;;;53.60;36.70;;;19.60;99.90;;;;;;4918293;29;20191;-83
2021/06/27 03:17:30;;;;;;;54.30;36.83;;;19.70;99.90;;;;;;4913671;29;20223;-82
2021/06/27 03:19:56;;;;;;;53.10;36.47;;;19.60;99.90;;;;;;4926664;29;20274;-83
2021/06/27 03:22:22;;;;;;;55.67;38.30;;;19.50;99.90;;;;;;4908395;29;20222;-83
2021/06/27 03:24:47;;;;;;;53.27;36.60;;;19.50;99.90;;;;;;4916552;29;20544;-83
2021/06/27 03:27:13;;;;;;;54.07;38.23;;;19.50;99.90;;;;;;4902596;29;20188;-82
2021/06/27 03:29:38;;;;;;;50.60;36.67;;;19.50;99.90;;;;;;4921173;29;20191;-83
2021/06/27 03:32:04;;;;;;;51.27;36.30;;;19.60;99.90;;;;;;4913043;29;20652;-83
2021/06/27 03:34:30;;;;;;;58.50;38.47;;;19.60;99.90;;;;;;4903967;29;20246;-84
2021/06/27 03:36:55;;;;;;;54.30;37.20;;;19.50;99.90;;;;;;4917837;29;20259;-83
2021/06/27 03:39:22;;;;;;;50.03;36.50;;;19.60;99.90;;;;;;4916032;29;20186;-83
2021/06/27 03:41:52;;;;;;;52.67;36.67;;;19.50;99.90;;;;;;4912981;29;20189;-83
2021/06/27 03:44:19;;;;;;;51.03;34.57;;;19.40;99.90;;;;;;4917727;29;20194;-79
2021/06/27 03:46:45;;;;;;;51.37;36.63;;;19.40;99.90;;;;;;4927733;29;20282;-82
2021/06/27 03:49:11;;;;;;;49.87;35.80;;;19.30;99.90;;;;;;4919084;29;20281;-84
2021/06/27 03:51:37;;;;;;;48.57;34.83;;;19.30;99.90;;;;;;4903115;29;20195;-83
2021/06/27 03:54:02;;;;;;;49.37;34.70;;;19.30;99.90;;;;;;4900364;29;20240;-84
2021/06/27 03:56:28;;;;;;;52.53;36.47;;;19.30;99.90;;;;;;4900966;29;20713;-83
2021/06/27 03:58:54;;;;;;;53.37;37.53;;;19.30;99.90;;;;;;4905892;29;20188;-83
2021/06/27 04:01:20;;;;;;;53.73;37.10;;;19.30;99.90;;;;;;4900831;29;20242;-82
2021/06/27 04:03:46;;;;;;;51.23;35.30;;;19.20;99.90;;;;;;4917343;29;20190;-83
2021/06/27 04:06:12;;;;;;;52.10;35.10;;;19.10;99.90;;;;;;4915721;29;20266;-83
2021/06/27 04:08:38;;;;;;;52.87;35.83;;;19.10;99.90;;;;;;4918718;29;20198;-82
2021/06/27 04:11:03;;;;;;;49.23;35.23;;;19.10;99.90;;;;;;4929248;29;20187;-79
2021/06/27 04:13:31;;;;;;;49.10;35.47;;;19.10;99.90;;;;;;4911122;29;20591;-81
2021/06/27 04:15:58;;;;;;;50.80;36.67;;;19.10;99.90;;;;;;4904545;29;20211;-82
2021/06/27 04:18:24;;;;;;;50.37;35.93;;;19.10;99.90;;;;;;4919921;29;20240;-82
2021/06/27 04:20:50;;;;;;;52.57;37.30;;;19.10;99.90;;;;;;4910713;29;20351;-83
2021/06/27 04:23:16;;;;;;;51.17;36.00;;;19.10;99.90;;;;;;4912778;29;20188;-83
2021/06/27 04:25:42;;;;;;;49.63;35.43;;;19.10;99.90;;;;;;4916932;29;20178;-83
2021/06/27 04:28:08;;;;;;;54.83;37.60;;;19.10;99.90;;;;;;4902751;29;20183;-82
2021/06/27 04:30:37;;;;;;;49.40;35.27;;;19.20;99.90;;;;;;4916672;29;20702;-83
2021/06/27 04:33:04;;;;;;;49.07;35.53;;;19.20;99.90;;;;;;4915907;29;20202;-83
2021/06/27 04:35:35;;;;;;;52.73;36.93;;;19.20;99.90;;;;;;4903486;29;20664;-83
2021/06/27 04:38:09;;;;;;;56.60;37.60;;;19.60;99.90;;;;;;4917650;29;20543;-83
2021/06/27 04:40:35;;;;;;;56.60;38.43;;;19.70;99.90;;;;;;4918596;29;20185;-82
2021/06/27 04:43:02;;;;;;;52.90;36.90;;;19.70;99.90;;;;;;4908853;29;20193;-82
2021/06/27 04:45:27;;;;;;;56.70;36.47;;;19.60;99.90;;;;;;4914306;29;20190;-83
2021/06/27 04:47:53;;;;;;;57.60;37.50;;;19.80;99.90;;;;;;4913646;29;20187;-82
2021/06/27 04:50:19;;;;;;;53.67;37.27;;;19.90;99.90;;;;;;4919739;29;20245;-83
2021/06/27 04:52:47;;;;;;;50.17;36.50;;;19.70;99.90;;;;;;4914734;29;20235;-82
2021/06/27 04:55:13;;;;;;;52.43;36.30;;;19.80;99.90;;;;;;4906161;29;20182;-83
2021/06/27 04:57:38;;;;;;;53.10;35.83;;;19.90;99.90;;;;;;4925559;29;20281;-83
2021/06/27 05:00:06;;;;;;;51.43;35.60;;;20.00;99.90;;;;;;4924114;29;20199;-83
2021/06/27 05:02:32;;;;;;;53.70;37.57;;;20.10;99.90;;;;;;4922905;29;20197;-84
2021/06/27 05:04:57;;;;;;;52.33;35.43;;;20.10;99.90;;;;;;4912406;29;20206;-84
2021/06/27 05:07:23;;;;;;;47.53;35.37;;;20.30;99.90;;;;;;4910961;29;20199;-82
2021/06/27 05:09:49;;;;;;;48.73;34.57;;;20.40;99.90;;;;;;4922872;29;20207;-84
2021/06/27 05:12:15;;;;;;;49.37;34.23;;;20.50;99.90;;;;;;4917520;29;20281;-84
2021/06/27 05:14:41;;;;;;;50.33;34.23;;;20.60;99.90;;;;;;4921860;29;20688;-83
2021/06/27 05:17:07;;;;;;;49.03;34.83;;;20.80;99.90;;;;;;4910749;29;20321;-84
2021/06/27 05:19:33;;;;;;;43.93;32.63;;;20.80;99.90;;;;;;4921770;29;20282;-83
2021/06/27 05:21:58;;;;;;;45.13;32.97;;;20.90;99.90;;;;;;4926417;29;20221;-83
2021/06/27 05:24:24;;;;;;;44.13;32.43;;;20.80;99.90;;;;;;4920326;29;20183;-83
2021/06/27 05:26:50;;;;;;;42.67;30.70;;;20.80;99.90;;;;;;4922417;29;20199;-83
2021/06/27 05:29:15;;;;;;;41.23;29.73;;;20.80;99.90;;;;;;4923707;29;20191;-84
2021/06/27 05:31:41;;;;;;;40.07;29.20;;;20.80;99.90;;;;;;4923560;29;20547;-82
2021/06/27 05:34:06;;;;;;;40.33;30.40;;;20.90;99.90;;;;;;4906914;29;20291;-83
2021/06/27 05:36:37;;;;;;;44.60;31.30;;;21.00;99.90;;;;;;4913064;29;20210;-83
2021/06/27 05:39:10;;;;;;;39.67;29.50;;;21.00;99.90;;;;;;4932726;29;20641;-83
2021/06/27 05:41:43;;;;;;;38.33;28.73;;;21.00;99.90;;;;;;4929104;29;20207;-83
2021/06/27 05:44:09;;;;;;;40.43;28.67;;;21.00;99.90;;;;;;4922414;29;20225;-83
2021/06/27 05:46:34;;;;;;;38.50;28.93;;;21.00;99.90;;;;;;4931161;29;20188;-82
2021/06/27 05:49:02;;;;;;;37.17;28.07;;;20.90;99.90;;;;;;4916935;29;20191;-83
2021/06/27 05:51:28;;;;;;;35.47;26.13;;;20.90;99.90;;;;;;4929364;29;20215;-82
2021/06/27 05:53:54;;;;;;;35.03;24.87;;;20.90;99.90;;;;;;4922594;29;20192;-82
2021/06/27 05:56:20;;;;;;;39.07;26.57;;;20.90;99.90;;;;;;4918020;29;20279;-81
2021/06/27 05:58:47;;;;;;;34.90;25.43;;;20.90;99.90;;;;;;4929711;29;20187;-83
2021/06/27 06:01:17;;;;;;;36.20;25.53;;;21.10;99.90;;;;;;4912118;29;20184;-82
2021/06/27 06:03:43;;;;;;;34.27;25.73;;;21.20;99.90;;;;;;4921299;29;20275;-82
2021/06/27 06:06:10;;;;;;;34.13;25.13;;;21.20;99.90;;;;;;4918472;29;20205;-84
2021/06/27 06:08:41;;;;;;;37.50;27.07;;;21.20;99.90;;;;;;4902507;29;20697;-84
2021/06/27 06:11:10;;;;;;;40.00;27.53;;;21.10;99.90;;;;;;4918722;29;20188;-83
2021/06/27 06:13:37;;;;;;;42.50;28.60;;;21.30;99.90;;;;;;4926063;29;20180;-81
2021/06/27 06:16:05;;;;;;;37.63;27.30;;;21.20;99.90;;;;;;4922602;29;20545;-83
2021/06/27 06:18:33;;;;;;;33.90;25.77;;;21.20;99.90;;;;;;4918765;29;20203;-82
2021/06/27 06:20:59;;;;;;;37.13;28.70;;;21.10;99.90;;;;;;4904929;29;20243;-81
2021/06/27 06:23:26;;;;;;;33.70;25.63;;;21.20;99.90;;;;;;4904686;29;20675;-79
2021/06/27 06:25:52;;;;;;;31.97;24.90;;;21.40;99.90;;;;;;4906617;29;20255;-78
2021/06/27 06:28:17;;;;;;;29.67;22.63;;;21.40;99.90;;;;;;4914446;29;20198;-79
2021/06/27 06:30:43;;;;;;;30.27;22.70;;;21.60;99.90;;;;;;4907010;29;20211;-79
2021/06/27 06:33:12;;;;;;;33.67;23.83;;;21.60;99.90;;;;;;4916305;29;20299;-78
2021/06/27 06:35:39;;;;;;;29.13;21.83;;;21.60;99.90;;;;;;4928515;29;20296;-83
2021/06/27 06:38:09;;;;;;;34.23;24.20;;;21.70;99.90;;;;;;4906211;29;20637;-83
2021/06/27 06:40:37;;;;;;;32.60;24.77;;;21.80;99.90;;;;;;4915332;29;20202;-84
2021/06/27 06:43:03;;;;;;;31.77;24.70;;;21.70;99.90;;;;;;4935049;29;20195;-84
2021/06/27 06:45:32;;;;;;;32.27;24.23;;;21.90;99.90;;;;;;4934084;29;20188;-83
2021/06/27 06:48:00;;;;;;;33.53;24.43;;;21.90;99.90;;;;;;4926322;29;20179;-83
2021/06/27 06:50:28;;;;;;;38.03;27.23;;;22.00;99.90;;;;;;4917095;29;20198;-82
2021/06/27 06:52:54;;;;;;;38.37;27.40;;;22.10;99.90;;;;;;4918881;29;20193;-83
2021/06/27 06:55:22;;;;;;;32.30;25.43;;;22.20;99.90;;;;;;4918791;29;20665;-83
2021/06/27 06:57:49;;;;;;;31.17;23.73;;;22.10;99.90;;;;;;4917296;29;20229;-84
2021/06/27 07:00:17;;;;;;;35.70;26.40;;;22.30;99.90;;;;;;4921251;29;20191;-84
2021/06/27 07:02:42;;;;;;;37.00;27.10;;;22.40;99.90;;;;;;4918266;29;20204;-84
2021/06/27 07:05:09;;;;;;;34.53;24.93;;;22.40;99.90;;;;;;4928580;29;20201;-83
2021/06/27 07:07:36;;;;;;;33.03;25.20;;;22.40;99.90;;;;;;4913367;29;20210;-87
2021/06/27 07:10:05;;;;;;;32.77;25.13;;;22.40;99.90;;;;;;4917667;29;20219;-87
2021/06/27 07:12:33;;;;;;;33.00;25.27;;;22.50;99.90;;;;;;4930204;29;20227;-88
2021/06/27 07:15:00;;;;;;;33.50;25.10;;;22.60;99.90;;;;;;4906239;29;20211;-87
2021/06/27 07:17:26;;;;;;;32.87;25.23;;;22.50;99.90;;;;;;4920839;29;20710;-87
2021/06/27 07:19:53;;;;;;;29.83;23.63;;;22.60;99.90;;;;;;4914420;29;20180;-87
2021/06/27 07:22:19;;;;;;;32.37;23.93;;;22.60;99.90;;;;;;4915933;29;20216;-87
2021/06/27 07:24:44;;;;;;;30.27;23.40;;;22.70;99.90;;;;;;4919952;29;20189;-87
2021/06/27 07:27:10;;;;;;;37.57;24.77;;;22.70;99.90;;;;;;4905095;29;20173;-87
2021/06/27 07:29:35;;;;;;;30.27;24.27;;;22.80;99.90;;;;;;4904984;29;20548;-86
2021/06/27 07:32:01;;;;;;;30.07;23.07;;;22.80;99.90;;;;;;4908609;29;20187;-86
2021/06/27 07:34:27;;;;;;;27.83;22.23;;;22.80;99.90;;;;;;4906650;29;20680;-85
2021/06/27 07:36:54;;;;;;;25.53;22.43;;;22.80;99.90;;;;;;4909497;29;20219;-85
2021/06/27 07:39:20;;;;;;;31.40;23.87;;;22.70;99.90;;;;;;4908699;29;20647;-85
2021/06/27 07:41:46;;;;;;;28.37;21.03;;;22.90;99.90;;;;;;4917069;29;20191;-86
2021/06/27 07:44:12;;;;;;;26.77;19.80;;;22.90;99.90;;;;;;4917541;29;20255;-85
2021/06/27 07:46:37;;;;;;;25.13;19.83;;;23.10;99.90;;;;;;4919054;29;20191;-86
2021/06/27 07:49:03;;;;;;;25.73;19.83;;;23.10;99.90;;;;;;4910440;29;20200;-86
2021/06/27 07:51:29;;;;;;;25.57;19.70;;;23.30;99.90;;;;;;4910935;29;20189;-86
2021/06/27 07:53:55;;;;;;;25.20;19.20;;;23.40;99.90;;;;;;4911833;29;20238;-86
2021/06/27 07:56:20;;;;;;;24.73;19.43;;;23.60;99.90;;;;;;4908270;29;20574;-86
2021/06/27 07:58:47;;;;;;;26.40;18.83;;;23.70;99.90;;;;;;4912665;29;20275;-86
2021/06/27 08:01:12;;;;;;;25.03;18.37;;;23.80;99.90;;;;;;4904340;29;20523;-86
2021/06/27 08:03:38;;;;;;;26.53;19.63;;;24.00;99.90;;;;;;4903011;29;20283;-85
2021/06/27 08:06:04;;;;;;;23.03;18.40;;;24.10;99.90;;;;;;4928643;29;20578;-86
2021/06/27 08:08:30;;;;;;;23.40;18.23;;;24.10;99.90;;;;;;4900998;29;20343;-86
2021/06/27 08:10:55;;;;;;;22.53;18.63;;;24.10;99.90;;;;;;4904111;29;20215;-85
2021/06/27 08:13:21;;;;;;;20.80;17.37;;;24.20;99.90;;;;;;4922766;29;20274;-85
2021/06/27 08:15:48;;;;;;;23.83;17.93;;;24.30;99.90;;;;;;4911711;29;20235;-86
2021/06/27 08:18:14;;;;;;;23.97;17.93;;;24.40;99.90;;;;;;4913534;29;20275;-86
2021/06/27 08:20:39;;;;;;;21.50;18.40;;;24.50;99.90;;;;;;4915178;29;20179;-86
2021/06/27 08:23:05;;;;;;;24.43;18.97;;;24.60;99.90;;;;;;4915903;29;20271;-86
2021/06/27 08:25:32;;;;;;;21.30;18.40;;;24.70;99.90;;;;;;4909669;29;20188;-84
2021/06/27 08:27:57;;;;;;;20.10;17.20;;;24.60;99.90;;;;;;4921204;29;20644;-85
2021/06/27 08:30:23;;;;;;;24.40;18.10;;;24.70;99.90;;;;;;4914572;29;20194;-86
2021/06/27 08:32:50;;;;;;;20.00;17.13;;;24.70;99.90;;;;;;4900141;29;20189;-87
2021/06/27 08:35:20;;;;;;;21.03;16.70;;;24.80;99.90;;;;;;4916315;29;20638;-83
2021/06/27 08:37:47;;;;;;;20.27;16.87;;;25.00;99.50;;;;;;4909657;29;20756;-84
2021/06/27 08:40:15;;;;;;;21.20;16.77;;;24.90;99.70;;;;;;4915086;29;20185;-85
2021/06/27 08:42:41;;;;;;;20.37;16.77;;;25.10;99.60;;;;;;4906279;29;20218;-86
2021/06/27 08:45:08;;;;;;;19.77;16.77;;;25.10;99.20;;;;;;4912386;29;20650;-85
2021/06/27 08:47:36;;;;;;;21.57;16.97;;;25.00;99.50;;;;;;4905530;29;20200;-87
2021/06/27 08:50:49;;;;;;;;;;;;;;;;;;;;;
2021/06/27 08:54:25;;;;;;;18.97;16.03;;;25.20;99.30;;;;;;4908931;29;20194;-92
2021/06/27 08:56:43;;;;;;;19.23;15.13;;;25.20;99.20;;;;;;4908637;29;20208;-94
2021/06/27 08:59:27;;;;;;;20.13;14.97;;;25.30;98.70;;;;;;4907737;29;20189;-93
2021/06/27 09:05:34;;;;;;;18.73;15.53;;;25.60;98.50;;;;;;4910260;29;20199;-92
2021/06/27 09:08:43;;;;;;;17.13;15.30;;;25.50;97.90;;;;;;4903905;29;20200;-92
2021/06/27 09:15:08;;;;;;;;;;;;;;;;;;;;;
2021/06/27 09:18:35;;;;;;;;;;;;;;;;;;;;;
2021/06/27 09:21:45;;;;;;;;;;;;;;;;;;;;;
2021/06/27 09:24:26;;;;;;;18.30;13.07;;;26.20;96.70;;;;;;4924255;29;20195;-92
2021/06/27 09:27:44;;;;;;;;;;;;;;;;;;;;;
2021/06/27 09:30:49;;;;;;;15.73;12.90;;;26.40;96.90;;;;;;4904726;29;20204;-92
2021/06/27 09:33:17;;;;;;;17.73;12.07;;;26.50;96.70;;;;;;4899332;29;20231;-86
2021/06/27 09:35:52;;;;;;;16.30;12.33;;;26.70;96.20;;;;;;4921491;29;20204;-86
2021/06/27 09:38:23;;;;;;;14.67;11.53;;;26.70;95.70;;;;;;4922008;29;20280;-86
2021/06/27 09:40:52;;;;;;;13.17;11.40;;;26.90;95.50;;;;;;4928274;29;20543;-86
2021/06/27 09:43:18;;;;;;;11.57;10.33;;;26.90;95.40;;;;;;4916148;29;20180;-86
2021/06/27 09:45:54;;;;;;;12.50;11.00;;;27.00;95.50;;;;;;4920451;29;20285;-86
2021/06/27 09:48:20;;;;;;;14.07;11.23;;;27.10;95.10;;;;;;4916266;29;20178;-86
2021/06/27 09:50:46;;;;;;;16.73;12.73;;;27.10;95.10;;;;;;4917786;29;20625;-85
2021/06/27 09:53:35;;;;;;;14.17;11.17;;;27.10;94.90;;;;;;4915507;29;20199;-86
2021/06/27 09:56:02;;;;;;;11.67;10.47;;;27.10;95.20;;;;;;4903068;29;20218;-86
2021/06/27 09:58:29;;;;;;;12.10;10.67;;;27.10;95.30;;;;;;4920796;29;20196;-86
2021/06/27 10:00:57;;;;;;;13.03;11.10;;;27.20;94.90;;;;;;4920136;29;20187;-86
2021/06/27 10:03:23;;;;;;;12.30;9.97;;;27.30;94.60;;;;;;4904998;29;20243;-86
2021/06/27 10:05:49;;;;;;;11.77;9.53;;;27.30;94.80;;;;;;4910458;29;20587;-85
2021/06/27 10:08:28;;;;;;;13.03;11.00;;;27.30;94.90;;;;;;4916852;29;20216;-86
2021/06/27 10:11:15;;;;;;;14.77;11.33;;;27.40;94.70;;;;;;4905768;29;20188;-86
2021/06/27 10:13:41;;;;;;;11.93;9.87;;;27.60;94.50;;;;;;4924068;29;20216;-86
2021/06/27 10:16:10;;;;;;;11.47;10.33;;;27.70;94.50;;;;;;4919955;29;20207;-85
2021/06/27 10:18:36;;;;;;;11.87;10.43;;;27.90;93.70;;;;;;4921731;29;20210;-87
2021/06/27 10:21:02;;;;;;;11.27;9.47;;;27.90;93.70;;;;;;4921524;29;20199;-86
2021/06/27 10:23:27;;;;;;;11.80;10.50;;;28.00;93.50;;;;;;4920277;29;20176;-87
2021/06/27 10:25:54;;;;;;;12.23;9.90;;;28.10;93.50;;;;;;4912944;29;20198;-86
2021/06/27 10:28:20;;;;;;;13.07;10.80;;;28.20;93.30;;;;;;4911474;29;20549;-86
2021/06/27 10:30:46;;;;;;;10.77;8.90;;;28.30;92.80;;;;;;4916952;29;20199;-86
2021/06/27 10:33:11;;;;;;;11.27;9.90;;;28.50;92.70;;;;;;4916726;29;20184;-86
2021/06/27 10:35:38;;;;;;;10.60;9.50;;;28.80;92.10;;;;;;4918856;29;20191;-86
2021/06/27 10:38:06;;;;;;;12.47;10.23;;;28.90;92.50;;;;;;4908056;29;20226;-86
2021/06/27 10:40:59;;;;;;;10.10;8.17;;;29.10;92.30;;;;;;4918614;29;20191;-86
2021/06/27 10:43:45;;;;;;;10.40;9.03;;;29.10;92.10;;;;;;4925164;29;20641;-86
2021/06/27 10:46:11;;;;;;;11.77;8.70;;;29.30;91.80;;;;;;4909045;29;20198;-84
2021/06/27 10:48:38;;;;;;;10.37;9.00;;;29.50;91.40;;;;;;4926008;29;20270;-87
2021/06/27 10:51:10;;;;;;;10.23;9.23;;;29.60;91.10;;;;;;4913561;29;20263;-87
2021/06/27 10:54:11;;;;;;;11.87;9.27;;;29.60;90.70;;;;;;4901811;29;20227;-84
2021/06/27 10:56:52;;;;;;;11.83;9.50;;;29.70;90.70;;;;;;4909446;29;20199;-87
2021/06/27 10:59:40;;;;;;;9.70;8.70;;;29.90;90.30;;;;;;4921909;29;20264;-86
2021/06/27 11:02:21;;;;;;;13.20;9.77;;;30.30;90.70;;;;;;4916670;29;20286;-86
2021/06/27 11:04:51;;;;;;;10.20;9.20;;;30.40;89.50;;;;;;4924366;29;20192;-84
2021/06/27 11:07:41;;;;;;;10.47;8.57;;;30.50;90.00;;;;;;4924674;29;20203;-87
2021/06/27 11:10:19;;;;;;;11.53;9.03;;;30.50;89.40;;;;;;4909803;29;20295;-86
2021/06/27 11:13:00;;;;;;;9.17;8.10;;;30.70;88.50;;;;;;4916417;29;20664;-87
2021/06/27 11:15:31;;;;;;;9.70;8.63;;;30.80;88.20;;;;;;4904152;29;20555;-87
2021/06/27 11:18:01;;;;;;;10.40;8.97;;;30.80;88.90;;;;;;4920230;29;20220;-87
2021/06/27 11:20:31;;;;;;;9.03;7.90;;;30.90;89.00;;;;;;4919497;29;20180;-87
2021/06/27 11:22:58;;;;;;;9.13;7.87;;;30.80;89.40;;;;;;4915029;29;20192;-87
2021/06/27 11:25:37;;;;;;;11.03;8.43;;;31.00;87.50;;;;;;4919085;29;20215;-86
2021/06/27 11:28:21;;;;;;;10.30;7.93;;;31.10;87.60;;;;;;4917094;29;20745;-86
2021/06/27 11:30:48;;;;;;;12.13;8.35;;;31.40;87.70;;;;;;4918822;29;20274;-87
2021/06/27 11:33:17;;;;;;;9.70;8.03;;;31.50;86.40;;;;;;4915450;29;20192;-87
2021/06/27 11:35:57;;;;;;;10.10;8.23;;;31.90;84.00;;;;;;4919874;29;20215;-87
2021/06/27 11:38:37;;;;;;;8.27;7.45;;;32.40;82.10;;;;;;4906154;29;20308;-86
2021/06/27 11:41:36;;;;;;;8.30;7.32;;;33.40;80.80;;;;;;4921982;29;20672;-87
2021/06/27 11:44:06;;;;;;;7.53;6.82;;;34.30;79.10;;;;;;4897927;29;20192;-86
2021/06/27 11:46:38;;;;;;;8.65;7.85;;;34.90;78.10;;;;;;4926407;29;20186;-87
2021/06/27 11:49:07;;;;;;;9.75;8.77;;;35.20;75.80;;;;;;4908746;29;20188;-86
2021/06/27 11:51:44;;;;;;;8.35;7.35;;;34.90;75.10;;;;;;4914377;29;20188;-87
2021/06/27 11:54:13;;;;;;;9.70;8.25;;;34.20;76.80;;;;;;4916695;29;20207;-87
2021/06/27 11:57:05;;;;;;;8.93;8.05;;;33.50;78.30;;;;;;4928476;29;20230;-87
2021/06/27 11:59:32;;;;;;;9.20;7.78;;;33.10;78.20;;;;;;4906228;29;20188;-87
2021/06/27 12:02:14;;;;;;;11.65;7.88;;;32.40;79.50;;;;;;4925513;29;20188;-87
2021/06/27 12:04:58;;;;;;;8.45;7.65;;;32.10;79.70;;;;;;4916150;29;20262;-86
2021/06/27 12:07:42;;;;;;;9.07;7.97;;;31.70;80.60;;;;;;4912170;29;20250;-86
2021/06/27 12:10:08;;;;;;;9.00;8.07;;;31.20;81.30;;;;;;4920024;29;20231;-86
2021/06/27 12:12:38;;;;;;;8.47;7.53;;;30.70;82.20;;;;;;4917544;29;20331;-86
2021/06/27 12:15:08;;;;;;;10.53;8.00;;;30.50;84.10;;;;;;4914819;29;20645;-85
2021/06/27 12:17:34;;;;;;;9.80;7.93;;;30.40;85.10;;;;;;4927727;29;20223;-86
2021/06/27 12:20:00;;;;;;;10.33;8.60;;;30.10;85.60;;;;;;4919527;29;20188;-86
2021/06/27 12:22:26;;;;;;;8.63;7.73;;;29.90;85.20;;;;;;4917429;29;20192;-86
2021/06/27 12:25:01;;;;;;;9.13;8.03;;;29.80;86.50;;;;;;4903089;29;20336;-86
2021/06/27 12:27:26;;;;;;;9.00;7.80;;;29.80;86.90;;;;;;4924468;29;20187;-86
2021/06/27 12:29:52;;;;;;;9.83;7.67;;;29.60;86.40;;;;;;4915807;29;20258;-86
2021/06/27 12:32:18;;;;;;;9.07;8.03;;;29.50;87.60;;;;;;4900952;29;20212;-86
2021/06/27 12:34:45;;;;;;;8.47;7.67;;;29.50;88.00;;;;;;4913326;29;20192;-86
2021/06/27 12:37:12;;;;;;;10.10;8.73;;;29.60;87.90;;;;;;4916397;29;20242;-86
2021/06/27 12:39:38;;;;;;;8.37;7.23;;;29.70;87.50;;;;;;4900224;29;20262;-86
2021/06/27 12:42:12;;;;;;;8.73;7.27;;;29.90;87.10;;;;;;4904227;29;20528;-86
2021/06/27 12:44:38;;;;;;;9.30;7.80;;;29.80;87.70;;;;;;4925283;29;20188;-86
2021/06/27 12:47:04;;;;;;;7.83;7.03;;;29.80;87.00;;;;;;4916658;29;20228;-85
2021/06/27 12:49:33;;;;;;;7.17;6.47;;;29.80;87.40;;;;;;4917027;29;20253;-86
2021/06/27 12:52:09;;;;;;;8.23;6.60;;;29.90;86.10;;;;;;4923537;29;20176;-85
2021/06/27 12:54:43;;;;;;;7.50;6.80;;;30.20;85.80;;;;;;4906180;29;20188;-86